Time;durP1;ratioP1;P1;durP2;ratioP2;P2;SDS_P1;SDS_P2;PMS_P1;PMS_P2;Temp;Humidity;BMP_temperature;BMP_pressure;BME280_temperature;BME280_humidity;BME280_pressure;Samples;Min_cycle;Max_cycle;Signal;HPM_P1;HPM_P2
2020/12/15 00:00:18;;;;;;;4.85;2.67;;;6.30;99.90;;;;;;4981363;28;20381;-69
2020/12/15 00:02:45;;;;;;;4.43;2.42;;;6.40;99.90;;;;;;4981185;28;20057;-69
2020/12/15 00:05:13;;;;;;;4.90;2.80;;;6.40;99.90;;;;;;4981624;28;20027;-69
2020/12/15 00:07:40;;;;;;;4.78;2.75;;;6.50;99.90;;;;;;4981049;28;20018;-69
2020/12/15 00:10:08;;;;;;;4.38;2.30;;;6.50;99.90;;;;;;4996428;28;20034;-69
2020/12/15 00:12:36;;;;;;;4.13;2.65;;;6.50;99.90;;;;;;4981783;28;20031;-69
2020/12/15 00:15:04;;;;;;;5.65;2.58;;;6.60;99.90;;;;;;4996241;28;20027;-69
2020/12/15 00:17:31;;;;;;;4.30;2.45;;;6.60;99.90;;;;;;4981193;28;20335;-69
2020/12/15 00:19:59;;;;;;;3.75;2.20;;;6.60;99.90;;;;;;4981562;28;20025;-69
2020/12/15 00:22:27;;;;;;;3.47;1.90;;;6.70;99.90;;;;;;4981538;28;20030;-69
2020/12/15 00:24:55;;;;;;;4.32;2.55;;;6.70;99.90;;;;;;4981546;28;20105;-69
2020/12/15 00:27:22;;;;;;;4.10;2.63;;;6.70;99.90;;;;;;4981125;28;20054;-69
2020/12/15 00:29:50;;;;;;;4.43;2.60;;;6.70;99.90;;;;;;4995999;28;20022;-69
2020/12/15 00:32:17;;;;;;;6.03;2.35;;;6.80;99.90;;;;;;4981397;28;20033;-69
2020/12/15 00:34:44;;;;;;;4.68;2.80;;;6.70;99.90;;;;;;4980837;28;20018;-69
2020/12/15 00:37:12;;;;;;;3.50;2.47;;;6.70;99.90;;;;;;4980677;28;20022;-69
2020/12/15 00:39:40;;;;;;;4.68;2.88;;;6.70;99.90;;;;;;4980674;28;20165;-69
2020/12/15 00:42:09;;;;;;;5.13;2.83;;;6.80;99.90;;;;;;4980817;28;20331;-69
2020/12/15 00:44:37;;;;;;;5.93;3.20;;;6.80;99.90;;;;;;4980753;28;20023;-69
2020/12/15 00:47:04;;;;;;;5.53;2.75;;;6.70;99.90;;;;;;4980758;28;20030;-69
2020/12/15 00:49:31;;;;;;;3.97;2.30;;;6.70;99.90;;;;;;4979589;28;20320;-69
2020/12/15 00:51:59;;;;;;;4.72;1.92;;;6.70;99.90;;;;;;4995658;28;20414;-69
2020/12/15 00:54:27;;;;;;;4.97;2.70;;;6.60;99.90;;;;;;4981004;28;20073;-69
2020/12/15 00:56:54;;;;;;;4.40;2.70;;;6.60;99.90;;;;;;4995611;28;20031;-69
2020/12/15 00:59:21;;;;;;;6.03;2.78;;;6.50;99.90;;;;;;4980523;28;20030;-69
2020/12/15 01:01:49;;;;;;;6.90;2.97;;;6.50;99.90;;;;;;4980250;28;20366;-69
2020/12/15 01:04:17;;;;;;;5.32;3.10;;;6.40;99.90;;;;;;4980587;28;20029;-69
2020/12/15 01:06:50;;;;;;;5.10;2.67;;;6.40;99.90;;;;;;4980183;28;20059;-69
2020/12/15 01:09:18;;;;;;;6.18;2.67;;;6.30;99.90;;;;;;4981117;28;20031;-69
2020/12/15 01:11:45;;;;;;;4.95;2.75;;;6.30;99.90;;;;;;4980118;28;20035;-69
2020/12/15 01:14:12;;;;;;;4.80;2.47;;;6.30;99.90;;;;;;4980324;28;20078;-69
2020/12/15 01:16:44;;;;;;;4.25;2.47;;;6.30;99.90;;;;;;4979972;28;20114;-69
2020/12/15 01:19:11;;;;;;;6.80;3.08;;;6.30;99.90;;;;;;4980047;28;20030;-69
2020/12/15 01:21:38;;;;;;;4.25;2.42;;;6.30;99.90;;;;;;4995067;28;20477;-69
2020/12/15 01:24:06;;;;;;;5.38;2.83;;;6.30;99.90;;;;;;4995141;28;20023;-69
2020/12/15 01:26:34;;;;;;;7.35;2.90;;;6.30;99.90;;;;;;4980433;28;20050;-69
2020/12/15 01:29:01;;;;;;;4.63;2.55;;;6.40;99.90;;;;;;4979622;28;20446;-69
2020/12/15 01:31:29;;;;;;;4.45;2.80;;;6.40;99.90;;;;;;4979691;28;20030;-69
2020/12/15 01:33:57;;;;;;;4.75;2.40;;;6.40;99.90;;;;;;4979808;28;20367;-69
2020/12/15 01:36:32;;;;;;;4.60;2.60;;;6.40;99.90;;;;;;4979666;28;20109;-69
2020/12/15 01:39:00;;;;;;;5.53;2.67;;;6.40;99.90;;;;;;4979881;28;20027;-69
2020/12/15 01:41:29;;;;;;;3.80;2.20;;;6.40;99.90;;;;;;4978551;28;20691;-69
2020/12/15 01:43:57;;;;;;;5.38;3.20;;;6.40;99.90;;;;;;4979588;28;20019;-69
2020/12/15 01:46:25;;;;;;;3.42;2.15;;;6.40;99.90;;;;;;4994600;28;20323;-69
2020/12/15 01:48:57;;;;;;;4.75;2.80;;;6.50;99.90;;;;;;4979999;28;20034;-69
2020/12/15 01:51:29;;;;;;;4.50;2.15;;;6.50;99.90;;;;;;4979380;28;20022;-69
2020/12/15 01:54:01;;;;;;;6.15;2.53;;;6.50;99.90;;;;;;4979912;28;20019;-69
2020/12/15 01:56:30;;;;;;;4.25;2.50;;;6.50;99.90;;;;;;4979287;28;20023;-69
2020/12/15 01:59:03;;;;;;;4.70;2.47;;;6.50;99.90;;;;;;4994309;28;20034;-69
2020/12/15 02:01:42;;;;;;;3.75;2.35;;;6.60;99.90;;;;;;4994247;28;20347;-69
2020/12/15 02:04:10;;;;;;;4.95;2.55;;;6.60;99.90;;;;;;4979400;28;20030;-69
2020/12/15 02:06:38;;;;;;;4.25;2.50;;;6.60;99.90;;;;;;4979318;28;20023;-69
2020/12/15 02:09:07;;;;;;;4.82;2.40;;;6.60;99.90;;;;;;4978991;28;20034;-69
2020/12/15 02:11:34;;;;;;;4.20;2.28;;;6.60;99.90;;;;;;4979026;28;20039;-69
2020/12/15 02:14:01;;;;;;;5.03;2.63;;;6.60;99.90;;;;;;4977909;28;20027;-69
2020/12/15 02:16:30;;;;;;;4.35;2.28;;;6.60;99.90;;;;;;4978893;28;20026;-69
2020/12/15 02:18:57;;;;;;;4.00;2.17;;;6.60;99.90;;;;;;4978985;28;20030;-69
2020/12/15 02:21:25;;;;;;;3.92;2.10;;;6.60;99.90;;;;;;4993894;28;20376;-69
2020/12/15 02:23:53;;;;;;;3.55;2.22;;;6.60;99.90;;;;;;4979356;28;20018;-69
2020/12/15 02:26:21;;;;;;;3.97;2.60;;;6.60;99.90;;;;;;4979241;28;20027;-69
2020/12/15 02:28:48;;;;;;;4.65;3.00;;;6.70;99.90;;;;;;4993889;28;20031;-69
2020/12/15 02:31:16;;;;;;;4.10;2.35;;;6.70;99.90;;;;;;4979133;28;20022;-69
2020/12/15 02:33:44;;;;;;;5.13;2.78;;;6.70;99.90;;;;;;4979212;28;20058;-69
2020/12/15 02:36:12;;;;;;;3.05;1.88;;;6.80;99.90;;;;;;4978534;28;20066;-69
2020/12/15 02:38:39;;;;;;;3.58;2.40;;;6.80;99.90;;;;;;4993771;28;20055;-69
2020/12/15 02:41:09;;;;;;;4.50;2.50;;;6.90;99.90;;;;;;4978980;28;20046;-69
2020/12/15 02:43:36;;;;;;;4.63;2.67;;;6.90;99.90;;;;;;4978817;28;20072;-69
2020/12/15 02:46:05;;;;;;;3.97;2.25;;;6.90;99.90;;;;;;4978642;28;20323;-69
2020/12/15 02:48:33;;;;;;;6.50;2.42;;;6.90;99.90;;;;;;4979105;28;20122;-69
2020/12/15 02:51:01;;;;;;;3.70;2.30;;;6.90;99.90;;;;;;4993470;28;20042;-69
2020/12/15 02:53:28;;;;;;;4.40;2.65;;;6.90;99.90;;;;;;4978289;28;20030;-69
2020/12/15 02:55:55;;;;;;;5.35;2.80;;;6.90;99.90;;;;;;4978258;28;20026;-69
2020/12/15 02:58:23;;;;;;;6.22;2.70;;;6.90;99.90;;;;;;4977249;28;20493;-69
2020/12/15 03:00:51;;;;;;;4.05;2.65;;;6.90;99.90;;;;;;4977828;28;20034;-69
2020/12/15 03:03:19;;;;;;;5.32;2.58;;;6.90;99.90;;;;;;4978078;28;20027;-69
2020/12/15 03:05:46;;;;;;;6.30;3.00;;;6.90;99.90;;;;;;4978347;28;20323;-69
2020/12/15 03:08:13;;;;;;;4.63;2.90;;;6.90;99.90;;;;;;4978289;28;20023;-69
2020/12/15 03:10:41;;;;;;;6.13;3.67;;;6.90;99.90;;;;;;4978543;28;20030;-69
2020/12/15 03:13:09;;;;;;;4.97;2.88;;;6.90;99.90;;;;;;4978017;28;20323;-69
2020/12/15 03:15:36;;;;;;;5.75;2.83;;;6.90;99.90;;;;;;4977978;28;20042;-69
2020/12/15 03:18:04;;;;;;;8.35;3.20;;;6.90;99.90;;;;;;4976900;28;20019;-69
2020/12/15 03:20:32;;;;;;;6.65;3.22;;;6.90;99.90;;;;;;4978124;28;20191;-69
2020/12/15 03:22:59;;;;;;;5.57;3.28;;;6.90;99.90;;;;;;4977988;28;20023;-69
2020/12/15 03:25:27;;;;;;;5.78;2.78;;;6.90;99.90;;;;;;4977806;28;20463;-69
2020/12/15 03:27:55;;;;;;;5.68;3.40;;;6.90;99.90;;;;;;4978349;28;20031;-69
2020/12/15 03:30:23;;;;;;;5.28;3.22;;;6.90;99.90;;;;;;4976860;28;20031;-69
2020/12/15 03:32:50;;;;;;;5.97;3.40;;;6.90;99.90;;;;;;4993016;28;20376;-69
2020/12/15 03:35:18;;;;;;;5.20;2.80;;;6.90;99.90;;;;;;4978207;28;20073;-69
2020/12/15 03:37:46;;;;;;;5.93;3.33;;;6.80;99.90;;;;;;4977619;28;20035;-69
2020/12/15 03:40:13;;;;;;;10.25;3.25;;;6.80;99.90;;;;;;4977693;28;20023;-69
2020/12/15 03:42:41;;;;;;;4.38;2.85;;;6.80;99.90;;;;;;4993489;28;20033;-69
2020/12/15 03:45:09;;;;;;;5.38;3.05;;;6.80;99.90;;;;;;4977593;28;20319;-69
2020/12/15 03:47:37;;;;;;;5.18;3.15;;;6.80;99.90;;;;;;4977663;28;20023;-69
2020/12/15 03:50:04;;;;;;;5.43;3.55;;;6.80;99.90;;;;;;4977601;28;20023;-69
2020/12/15 03:52:32;;;;;;;7.53;3.50;;;6.80;99.90;;;;;;4977312;28;20043;-69
2020/12/15 03:55:00;;;;;;;7.53;4.72;;;6.80;99.90;;;;;;4978074;28;20030;-69
2020/12/15 03:57:27;;;;;;;5.40;3.47;;;6.80;99.90;;;;;;4978035;28;20042;-69
2020/12/15 03:59:56;;;;;;;6.32;3.65;;;6.80;99.90;;;;;;4977519;28;20023;-69
2020/12/15 04:02:24;;;;;;;5.13;3.03;;;6.80;99.90;;;;;;4977397;28;20043;-69
2020/12/15 04:04:58;;;;;;;6.47;3.92;;;6.80;99.90;;;;;;4992594;28;20027;-69
2020/12/15 04:07:27;;;;;;;7.63;4.03;;;6.80;99.90;;;;;;4992585;28;20027;-69
2020/12/15 04:09:54;;;;;;;5.55;3.15;;;6.80;99.90;;;;;;4977395;28;20442;-69
2020/12/15 04:12:22;;;;;;;5.80;3.53;;;6.80;99.90;;;;;;4977533;28;20025;-69
2020/12/15 04:14:49;;;;;;;5.78;3.35;;;6.80;99.90;;;;;;4992446;28;20074;-69
2020/12/15 04:17:17;;;;;;;6.07;3.60;;;6.80;99.90;;;;;;4976544;28;20062;-69
2020/12/15 04:19:44;;;;;;;6.32;3.67;;;6.80;99.90;;;;;;4992421;28;20027;-69
2020/12/15 04:22:11;;;;;;;4.75;3.47;;;6.80;99.90;;;;;;4992433;28;20054;-69
2020/12/15 04:24:39;;;;;;;6.93;3.88;;;6.70;99.90;;;;;;4977288;28;20030;-69
2020/12/15 04:27:06;;;;;;;9.18;4.13;;;6.70;99.90;;;;;;4977244;28;20091;-69
2020/12/15 04:29:34;;;;;;;6.63;4.65;;;6.70;99.90;;;;;;4976418;28;20019;-69
2020/12/15 04:32:02;;;;;;;8.10;4.20;;;6.70;99.90;;;;;;4977209;28;20023;-69
2020/12/15 04:34:30;;;;;;;5.75;3.50;;;6.70;99.90;;;;;;4977207;28;20084;-69
2020/12/15 04:36:57;;;;;;;6.80;3.80;;;6.70;99.90;;;;;;4977323;28;20101;-69
2020/12/15 04:39:26;;;;;;;6.25;3.90;;;6.70;99.90;;;;;;4992235;28;20080;-69
2020/12/15 04:41:53;;;;;;;7.72;4.38;;;6.70;99.90;;;;;;4980253;28;20034;-69
2020/12/15 04:44:21;;;;;;;7.78;4.30;;;6.70;99.90;;;;;;4980119;28;20075;-69
2020/12/15 04:47:12;;;;;;;6.82;4.38;;;6.70;99.90;;;;;;4995948;28;20027;-69
2020/12/15 04:49:59;;;;;;;8.00;5.10;;;6.70;99.90;;;;;;4977361;28;20043;-69
2020/12/15 04:52:58;;;;;;;6.88;4.32;;;6.70;99.90;;;;;;4981077;28;20023;-69
2020/12/15 04:55:26;;;;;;;8.23;4.55;;;6.70;99.90;;;;;;4980445;28;20098;-69
2020/12/15 04:57:58;;;;;;;8.07;4.50;;;6.70;99.90;;;;;;4980518;28;20027;-69
2020/12/15 05:00:25;;;;;;;7.90;4.65;;;6.70;99.90;;;;;;4980780;28;20358;-69
2020/12/15 05:02:55;;;;;;;8.55;4.32;;;6.70;99.90;;;;;;4980073;28;20069;-69
2020/12/15 05:05:24;;;;;;;7.93;4.15;;;6.70;99.90;;;;;;4980202;28;20026;-69
2020/12/15 05:07:52;;;;;;;8.32;4.63;;;6.70;99.90;;;;;;4980383;28;20036;-69
2020/12/15 05:10:20;;;;;;;6.53;4.30;;;6.70;99.90;;;;;;4980639;28;20113;-69
2020/12/15 05:12:48;;;;;;;7.65;4.45;;;6.70;99.90;;;;;;4980160;28;20039;-69
2020/12/15 05:15:18;;;;;;;7.32;4.40;;;6.70;99.90;;;;;;4980027;28;20354;-69
2020/12/15 05:17:47;;;;;;;7.22;4.30;;;6.70;99.90;;;;;;4995291;28;20109;-69
2020/12/15 05:20:26;;;;;;;7.57;4.20;;;6.80;99.90;;;;;;4979951;28;20412;-69
2020/12/15 05:22:54;;;;;;;10.43;4.22;;;6.80;99.90;;;;;;4980274;28;20029;-69
2020/12/15 05:25:37;;;;;;;7.57;4.80;;;6.80;99.90;;;;;;4979819;28;20027;-69
2020/12/15 05:28:12;;;;;;;8.95;5.10;;;6.80;99.90;;;;;;4979896;28;20023;-69
2020/12/15 05:30:40;;;;;;;10.47;4.70;;;6.80;99.90;;;;;;4979857;28;20019;-69
2020/12/15 05:33:17;;;;;;;8.52;4.75;;;6.80;99.90;;;;;;4979841;28;20250;-69
2020/12/15 05:35:45;;;;;;;7.60;4.50;;;6.70;99.90;;;;;;4979967;28;20029;-69
2020/12/15 05:38:12;;;;;;;9.80;6.03;;;6.70;99.90;;;;;;4979733;28;20117;-69
2020/12/15 05:40:41;;;;;;;10.38;6.00;;;6.70;99.90;;;;;;4980155;28;20026;-69
2020/12/15 05:43:08;;;;;;;10.85;6.03;;;6.70;99.90;;;;;;4980070;28;20022;-69
2020/12/15 05:45:37;;;;;;;9.82;6.28;;;6.60;99.90;;;;;;4979544;28;20062;-69
2020/12/15 05:48:07;;;;;;;10.38;5.78;;;6.60;99.90;;;;;;4979251;28;20517;-69
2020/12/15 05:50:36;;;;;;;9.35;5.30;;;6.60;99.90;;;;;;4979428;28;20034;-69
2020/12/15 05:53:11;;;;;;;10.50;6.03;;;6.60;99.90;;;;;;4978856;28;20019;-69
2020/12/15 05:55:43;;;;;;;12.20;6.40;;;6.50;99.90;;;;;;4979528;28;20023;-69
2020/12/15 05:58:16;;;;;;;10.50;5.97;;;6.50;99.90;;;;;;4979825;28;20407;-69
2020/12/15 06:00:45;;;;;;;14.95;6.35;;;6.50;99.90;;;;;;4979831;28;20408;-69
2020/12/15 06:03:12;;;;;;;10.38;5.93;;;6.50;99.90;;;;;;4979158;28;20069;-69
2020/12/15 06:05:40;;;;;;;11.23;6.38;;;6.40;99.90;;;;;;4979198;28;20019;-69
2020/12/15 06:08:08;;;;;;;11.68;7.22;;;6.40;99.90;;;;;;4978960;28;20046;-69
2020/12/15 06:10:36;;;;;;;10.48;6.63;;;6.40;99.90;;;;;;4979256;28;20358;-69
2020/12/15 06:13:04;;;;;;;10.80;6.07;;;6.40;99.90;;;;;;4979437;28;20023;-69
2020/12/15 06:15:31;;;;;;;14.05;7.30;;;6.40;99.90;;;;;;4978915;28;20034;-69
2020/12/15 06:18:02;;;;;;;12.85;7.30;;;6.40;99.90;;;;;;4978947;28;20151;-69
2020/12/15 06:20:36;;;;;;;13.13;6.90;;;6.40;99.90;;;;;;4978859;28;20019;-69
2020/12/15 06:23:11;;;;;;;12.38;7.80;;;6.40;99.90;;;;;;4994137;28;20030;-72
2020/12/15 06:25:39;;;;;;;14.60;8.18;;;6.40;99.90;;;;;;4978761;28;20019;-69
2020/12/15 06:28:09;;;;;;;9.80;6.55;;;6.40;99.90;;;;;;4977713;28;20027;-69
2020/12/15 06:30:46;;;;;;;13.70;7.68;;;6.40;99.90;;;;;;4978730;28;20323;-69
2020/12/15 06:33:15;;;;;;;13.73;7.95;;;6.40;99.90;;;;;;4979016;28;20023;-69
2020/12/15 06:35:49;;;;;;;12.02;7.75;;;6.40;99.90;;;;;;4978456;28;20425;-69
2020/12/15 06:38:20;;;;;;;13.38;7.65;;;6.40;99.90;;;;;;4978481;28;20034;-68
2020/12/15 06:40:49;;;;;;;12.55;7.53;;;6.40;99.90;;;;;;4978497;28;20422;-72
2020/12/15 06:43:35;;;;;;;14.90;8.15;;;6.40;99.90;;;;;;4978369;28;20367;-70
2020/12/15 06:46:04;;;;;;;15.50;8.40;;;6.30;99.90;;;;;;4978382;28;20031;-69
2020/12/15 06:48:38;;;;;;;13.05;7.90;;;6.30;99.90;;;;;;4978694;28;20030;-69
2020/12/15 06:51:06;;;;;;;16.30;9.40;;;6.30;99.90;;;;;;4978260;28;20049;-69
2020/12/15 06:53:34;;;;;;;14.70;8.95;;;6.30;99.90;;;;;;4978398;28;20027;-71
2020/12/15 06:56:03;;;;;;;18.95;10.00;;;6.30;99.90;;;;;;4978242;28;20029;-70
2020/12/15 06:58:31;;;;;;;15.07;8.85;;;6.30;99.90;;;;;;4978092;28;20102;-70
2020/12/15 07:00:59;;;;;;;14.85;8.85;;;6.20;99.90;;;;;;4977846;28;20098;-71
2020/12/15 07:03:45;;;;;;;15.48;9.38;;;6.20;99.90;;;;;;4978139;28;20065;-70
2020/12/15 07:06:19;;;;;;;14.07;8.47;;;6.20;99.90;;;;;;4977975;28;20050;-69
2020/12/15 07:08:57;;;;;;;17.13;10.45;;;6.20;99.90;;;;;;4979053;28;20026;-68
2020/12/15 07:11:26;;;;;;;15.35;9.73;;;6.20;99.90;;;;;;4977968;28;20038;-69
2020/12/15 07:14:05;;;;;;;17.52;9.93;;;6.10;99.90;;;;;;4978340;28;20519;-68
2020/12/15 07:16:33;;;;;;;17.00;9.45;;;6.10;99.90;;;;;;4978016;28;20049;-69
2020/12/15 07:19:00;;;;;;;17.27;9.07;;;6.10;99.90;;;;;;4978520;28;20027;-70
2020/12/15 07:21:31;;;;;;;13.85;8.38;;;6.10;99.90;;;;;;4978478;28;20315;-69
2020/12/15 07:24:02;;;;;;;15.52;8.80;;;6.10;99.90;;;;;;4977865;28;20049;-69
2020/12/15 07:26:31;;;;;;;14.30;9.23;;;6.10;99.90;;;;;;4960946;28;20018;-68
2020/12/15 07:28:58;;;;;;;16.83;9.02;;;6.10;99.90;;;;;;4992921;28;20479;-67
2020/12/15 07:31:26;;;;;;;15.55;8.57;;;6.20;99.90;;;;;;4977780;28;20030;-66
2020/12/15 07:34:16;;;;;;;18.83;9.75;;;6.20;99.90;;;;;;4978357;28;20034;-67
2020/12/15 07:36:47;;;;;;;18.10;8.70;;;6.10;99.90;;;;;;4978185;28;20031;-67
2020/12/15 07:39:15;;;;;;;17.65;8.70;;;6.10;99.90;;;;;;4977664;28;20415;-68
2020/12/15 07:41:55;;;;;;;18.08;9.35;;;6.10;99.90;;;;;;4977747;28;20030;-68
2020/12/15 07:44:22;;;;;;;14.77;8.95;;;6.10;99.90;;;;;;4977883;28;20019;-68
2020/12/15 07:46:50;;;;;;;14.63;9.65;;;6.10;99.90;;;;;;4978394;28;20515;-67
2020/12/15 07:49:18;;;;;;;17.33;9.70;;;6.10;99.90;;;;;;4977644;28;20149;-67
2020/12/15 07:51:45;;;;;;;17.77;9.07;;;6.10;99.90;;;;;;4977706;28;20423;-67
2020/12/15 07:54:13;;;;;;;16.65;9.43;;;6.10;99.90;;;;;;4977608;28;20033;-70
2020/12/15 07:56:42;;;;;;;19.67;10.32;;;6.10;99.90;;;;;;4977770;28;20027;-66
2020/12/15 07:59:14;;;;;;;17.70;9.70;;;6.10;99.90;;;;;;4977659;28;20019;-66
2020/12/15 08:01:41;;;;;;;14.82;9.18;;;6.10;99.90;;;;;;4977172;28;20069;-69
2020/12/15 08:04:16;;;;;;;17.48;9.18;;;6.10;99.90;;;;;;4976738;28;20367;-69
2020/12/15 08:06:49;;;;;;;16.48;9.30;;;6.20;99.90;;;;;;4976529;28;20428;-69
2020/12/15 08:09:18;;;;;;;16.70;9.05;;;6.20;99.90;;;;;;4977849;28;20027;-69
2020/12/15 08:11:47;;;;;;;18.67;10.48;;;6.20;99.90;;;;;;4992556;28;20031;-69
2020/12/15 08:14:19;;;;;;;16.77;8.63;;;6.20;99.90;;;;;;4977371;28;20035;-69
2020/12/15 08:16:46;;;;;;;18.48;8.98;;;6.20;99.90;;;;;;4980126;28;20497;-68
2020/12/15 08:19:14;;;;;;;15.50;8.73;;;6.20;99.90;;;;;;4981775;28;20054;-68
2020/12/15 08:21:48;;;;;;;23.90;13.70;;;6.30;99.90;;;;;;4981091;28;20027;-68
2020/12/15 08:24:27;;;;;;;14.80;8.50;;;6.40;99.90;;;;;;4981052;28;20021;-69
2020/12/15 08:26:55;;;;;;;71.88;12.15;;;6.40;99.90;;;;;;4981526;28;20363;-69
2020/12/15 08:29:29;;;;;;;14.48;8.10;;;6.40;99.90;;;;;;4981439;28;20019;-68
2020/12/15 08:31:57;;;;;;;13.40;7.40;;;6.40;99.90;;;;;;4980912;28;20387;-69
2020/12/15 08:34:24;;;;;;;18.20;9.68;;;6.50;99.90;;;;;;4981493;28;20022;-68
2020/12/15 08:36:55;;;;;;;30.58;14.98;;;6.50;99.90;;;;;;4980354;28;20019;-69
2020/12/15 08:39:35;;;;;;;23.30;12.60;;;6.60;99.90;;;;;;4980868;28;20089;-69
2020/12/15 08:42:03;;;;;;;98.03;40.55;;;6.60;99.90;;;;;;4995862;28;20019;-69
2020/12/15 08:44:35;;;;;;;139.68;48.70;;;6.60;99.90;;;;;;4980605;28;20419;-69
2020/12/15 08:47:03;;;;;;;47.45;21.88;;;6.70;99.90;;;;;;4981178;28;20307;-69
2020/12/15 08:49:31;;;;;;;68.75;26.52;;;6.70;99.90;;;;;;4981250;28;20022;-69
2020/12/15 08:51:58;;;;;;;13.80;8.00;;;6.70;99.90;;;;;;4981158;28;20027;-69
2020/12/15 08:54:26;;;;;;;13.40;7.68;;;6.80;99.90;;;;;;4980539;28;20030;-69
2020/12/15 08:56:54;;;;;;;14.68;8.43;;;6.80;99.90;;;;;;4980431;28;20034;-71
2020/12/15 08:59:25;;;;;;;13.25;7.70;;;6.80;99.90;;;;;;4980894;28;20031;-69
2020/12/15 09:01:59;;;;;;;13.15;6.75;;;6.90;99.90;;;;;;4980171;28;20055;-69
2020/12/15 09:04:28;;;;;;;11.93;7.35;;;6.90;99.90;;;;;;4980365;28;20109;-68
2020/12/15 09:06:55;;;;;;;11.15;6.65;;;7.00;99.90;;;;;;4995500;28;20033;-69
2020/12/15 09:09:30;;;;;;;16.55;9.55;;;7.10;99.90;;;;;;4980376;28;20023;-69
2020/12/15 09:11:59;;;;;;;13.75;8.10;;;7.10;99.90;;;;;;4980135;28;20335;-69
2020/12/15 09:14:27;;;;;;;11.38;6.88;;;7.30;99.90;;;;;;4980347;28;20031;-69
2020/12/15 09:16:54;;;;;;;12.20;7.10;;;7.30;99.90;;;;;;4979013;28;20082;-69
2020/12/15 09:19:22;;;;;;;12.35;7.57;;;7.40;99.90;;;;;;4980058;28;20027;-69
2020/12/15 09:21:58;;;;;;;11.20;6.25;;;7.50;99.90;;;;;;4979938;28;20030;-68
2020/12/15 09:24:26;;;;;;;14.38;8.00;;;7.60;99.90;;;;;;4979967;28;20038;-69
2020/12/15 09:26:53;;;;;;;10.57;6.43;;;7.60;99.90;;;;;;4993960;28;20026;-69
2020/12/15 09:29:21;;;;;;;10.25;6.50;;;7.60;99.90;;;;;;4980270;28;20045;-69
2020/12/15 09:31:53;;;;;;;12.07;6.63;;;7.70;99.90;;;;;;4979118;28;20109;-69
2020/12/15 09:34:22;;;;;;;11.45;6.82;;;7.80;99.90;;;;;;4979734;28;20034;-74
2020/12/15 09:36:57;;;;;;;10.32;7.20;;;7.80;99.90;;;;;;4979668;28;20031;-69
2020/12/15 09:39:30;;;;;;;11.27;6.43;;;7.90;99.90;;;;;;4980300;28;20462;-69
2020/12/15 09:42:03;;;;;;;10.50;6.32;;;8.00;99.90;;;;;;4994972;28;20062;-69
2020/12/15 09:44:31;;;;;;;10.85;6.68;;;8.10;99.90;;;;;;4979496;28;20019;-69
2020/12/15 09:46:59;;;;;;;10.27;6.32;;;8.10;99.90;;;;;;4995335;28;20026;-68
2020/12/15 09:49:27;;;;;;;13.90;8.20;;;8.20;99.90;;;;;;4994775;28;20110;-69
2020/12/15 09:51:54;;;;;;;11.23;7.15;;;8.20;99.90;;;;;;4979462;28;20101;-69
2020/12/15 09:54:22;;;;;;;11.98;7.20;;;8.30;99.90;;;;;;4979883;28;20025;-69
2020/12/15 09:56:49;;;;;;;13.80;6.95;;;8.30;99.90;;;;;;4979309;28;20031;-69
2020/12/15 09:59:16;;;;;;;11.90;7.00;;;8.30;99.90;;;;;;4994241;28;20494;-69
2020/12/15 10:01:44;;;;;;;29.75;12.60;;;8.20;99.90;;;;;;4978018;28;20347;-69
2020/12/15 10:04:12;;;;;;;16.10;9.13;;;8.20;99.90;;;;;;4979445;28;20109;-69
2020/12/15 10:06:40;;;;;;;12.15;7.45;;;8.20;99.90;;;;;;4979069;28;20025;-69
2020/12/15 10:09:08;;;;;;;13.45;7.28;;;8.20;99.90;;;;;;4979448;28;20457;-69
2020/12/15 10:11:36;;;;;;;17.50;10.48;;;8.20;99.90;;;;;;4979101;28;20445;-69
2020/12/15 10:14:04;;;;;;;13.98;8.00;;;8.10;99.90;;;;;;4978007;28;20040;-69
2020/12/15 10:16:31;;;;;;;11.10;6.72;;;8.10;99.90;;;;;;4979409;28;20035;-69
2020/12/15 10:18:59;;;;;;;13.07;7.40;;;8.10;99.90;;;;;;4994026;28;20441;-69
2020/12/15 10:21:27;;;;;;;12.85;7.32;;;8.10;99.90;;;;;;4978914;28;20023;-69
2020/12/15 10:23:54;;;;;;;12.77;7.03;;;8.10;99.90;;;;;;4979293;28;20050;-69
2020/12/15 10:26:23;;;;;;;14.48;7.70;;;8.10;99.90;;;;;;4978249;28;20018;-69
2020/12/15 10:28:52;;;;;;;11.95;7.35;;;8.10;99.90;;;;;;4978652;28;20043;-69
2020/12/15 10:31:21;;;;;;;14.18;8.63;;;8.10;99.90;;;;;;4978610;28;20035;-69
2020/12/15 10:33:49;;;;;;;13.20;7.85;;;8.10;99.90;;;;;;4978781;28;20023;-69
2020/12/15 10:36:17;;;;;;;12.75;7.88;;;8.10;99.90;;;;;;4977742;28;20030;-69
2020/12/15 10:38:45;;;;;;;12.43;7.07;;;8.10;99.90;;;;;;4978163;28;20034;-69
2020/12/15 10:41:13;;;;;;;13.98;8.15;;;8.10;99.90;;;;;;4978588;28;20034;-69
2020/12/15 10:43:41;;;;;;;13.95;8.70;;;8.20;99.90;;;;;;4978528;28;20089;-69
2020/12/15 10:46:09;;;;;;;16.58;8.70;;;8.10;99.90;;;;;;4978937;28;20018;-71
2020/12/15 10:48:36;;;;;;;13.15;7.57;;;8.20;99.90;;;;;;4978993;28;20064;-69
2020/12/15 10:51:04;;;;;;;11.32;7.68;;;8.20;99.90;;;;;;4978357;28;20031;-68
2020/12/15 10:53:31;;;;;;;12.63;8.05;;;8.20;99.90;;;;;;4993619;28;20023;-71
2020/12/15 10:55:59;;;;;;;11.93;7.72;;;8.20;99.90;;;;;;4978235;28;20023;-69
2020/12/15 10:58:27;;;;;;;12.57;7.50;;;8.30;99.90;;;;;;4978035;28;20335;-69
2020/12/15 11:00:55;;;;;;;21.48;10.68;;;8.30;99.90;;;;;;4977808;28;20103;-69
2020/12/15 11:03:22;;;;;;;12.57;7.78;;;8.30;99.90;;;;;;4978050;28;20046;-69
2020/12/15 11:05:49;;;;;;;11.13;7.72;;;8.30;99.90;;;;;;4978567;28;20030;-69
2020/12/15 11:08:17;;;;;;;12.68;6.57;;;8.30;99.90;;;;;;4993173;28;20030;-69
2020/12/15 11:10:45;;;;;;;13.82;7.60;;;8.30;99.90;;;;;;4993756;28;20031;-69
2020/12/15 11:13:13;;;;;;;12.77;7.28;;;8.30;99.90;;;;;;4992990;28;20027;-69
2020/12/15 11:15:40;;;;;;;11.65;7.78;;;8.20;99.90;;;;;;4977999;28;20030;-69
2020/12/15 11:18:08;;;;;;;12.13;7.45;;;8.20;99.90;;;;;;4977863;28;20034;-69
2020/12/15 11:20:36;;;;;;;15.32;8.00;;;8.20;99.90;;;;;;4978091;28;20031;-69
2020/12/15 11:23:05;;;;;;;15.13;9.10;;;8.20;99.90;;;;;;4977962;28;20411;-69
2020/12/15 11:25:33;;;;;;;12.35;7.47;;;8.20;99.90;;;;;;4977838;28;20069;-69
2020/12/15 11:28:00;;;;;;;13.73;8.10;;;8.20;99.90;;;;;;4977995;28;20054;-69
2020/12/15 11:30:28;;;;;;;16.08;8.38;;;8.10;99.90;;;;;;4977677;28;20030;-69
2020/12/15 11:32:56;;;;;;;11.23;7.15;;;8.20;99.90;;;;;;4978332;28;20086;-69
2020/12/15 11:35:24;;;;;;;12.65;8.00;;;8.20;99.90;;;;;;4977735;28;20494;-69
2020/12/15 11:37:51;;;;;;;14.20;7.78;;;8.20;99.90;;;;;;4977124;28;20035;-69
2020/12/15 11:40:19;;;;;;;12.88;7.18;;;8.20;99.90;;;;;;4977612;28;20019;-69
2020/12/15 11:42:50;;;;;;;14.35;7.72;;;8.20;99.90;;;;;;4977722;28;20019;-69
2020/12/15 11:45:18;;;;;;;12.05;7.30;;;8.20;99.90;;;;;;4977546;28;20134;-69
2020/12/15 11:47:46;;;;;;;13.45;7.63;;;8.20;99.90;;;;;;4978042;28;20474;-69
2020/12/15 11:50:14;;;;;;;12.43;6.85;;;8.20;99.90;;;;;;4978253;28;20319;-69
2020/12/15 11:52:42;;;;;;;12.80;7.05;;;8.20;99.90;;;;;;4982221;28;20019;-69
2020/12/15 11:55:11;;;;;;;12.23;7.38;;;8.20;99.90;;;;;;4981565;28;20023;-69
2020/12/15 11:57:38;;;;;;;11.45;6.53;;;8.20;99.90;;;;;;4981712;28;20325;-69
2020/12/15 12:00:08;;;;;;;11.25;6.60;;;8.20;99.90;;;;;;4981557;28;20042;-69
2020/12/15 12:02:38;;;;;;;11.35;6.28;;;8.20;99.90;;;;;;4981267;28;20046;-69
2020/12/15 12:05:05;;;;;;;14.05;6.60;;;8.20;99.90;;;;;;4981686;28;20023;-69
2020/12/15 12:07:33;;;;;;;9.98;6.15;;;8.20;99.90;;;;;;4981302;28;20045;-69
2020/12/15 12:10:01;;;;;;;11.75;7.32;;;8.20;99.90;;;;;;4981480;28;20042;-69
2020/12/15 12:12:28;;;;;;;13.77;7.65;;;8.20;99.90;;;;;;4980226;28;20434;-69
2020/12/15 12:14:57;;;;;;;11.35;7.47;;;8.10;99.90;;;;;;4981262;28;20427;-68
2020/12/15 12:17:24;;;;;;;13.02;7.30;;;8.10;99.90;;;;;;4981159;28;20038;-69
2020/12/15 12:19:51;;;;;;;13.30;7.43;;;8.10;99.90;;;;;;4981218;28;20339;-69
2020/12/15 12:22:19;;;;;;;13.48;7.32;;;8.00;99.90;;;;;;4981416;28;20069;-69
2020/12/15 12:24:47;;;;;;;17.73;7.90;;;8.00;99.90;;;;;;4981034;28;20080;-69
2020/12/15 12:27:16;;;;;;;13.30;7.70;;;8.00;99.90;;;;;;4981334;28;20418;-69
2020/12/15 12:29:44;;;;;;;11.93;6.72;;;7.90;99.90;;;;;;4981521;28;20034;-69
2020/12/15 12:32:12;;;;;;;12.68;8.02;;;7.90;99.90;;;;;;4981408;28;20030;-69
2020/12/15 12:34:41;;;;;;;16.42;9.15;;;7.90;99.90;;;;;;4981323;28;20051;-68
2020/12/15 12:37:11;;;;;;;12.63;7.70;;;7.80;99.90;;;;;;4980332;28;20041;-69
2020/12/15 12:39:40;;;;;;;14.07;7.10;;;7.80;99.90;;;;;;4981174;28;20030;-69
2020/12/15 12:42:07;;;;;;;14.38;8.73;;;7.80;99.90;;;;;;4980700;28;20046;-69
2020/12/15 12:44:35;;;;;;;14.23;6.90;;;7.80;99.90;;;;;;4979997;28;20094;-69
2020/12/15 12:47:02;;;;;;;14.20;7.18;;;7.80;99.90;;;;;;4981156;28;20105;-69
2020/12/15 12:49:30;;;;;;;12.98;7.38;;;7.80;99.90;;;;;;4963638;28;20418;-69
2020/12/15 12:51:58;;;;;;;14.02;7.75;;;7.80;99.90;;;;;;4981114;28;20022;-69
2020/12/15 12:54:26;;;;;;;15.65;8.07;;;7.80;99.90;;;;;;4980627;28;20070;-69
2020/12/15 12:56:54;;;;;;;14.02;6.95;;;7.80;99.90;;;;;;4980340;28;20031;-69
2020/12/15 12:59:21;;;;;;;13.00;7.13;;;7.80;99.90;;;;;;4995399;28;20031;-69